Time;durP1;ratioP1;P1;durP2;ratioP2;P2;SDS_P1;SDS_P2;PMS_P1;PMS_P2;Temp;Humidity;BMP_temperature;BMP_pressure;BME280_temperature;BME280_humidity;BME280_pressure;Samples;Min_cycle;Max_cycle;Signal;HPM_P1;HPM_P2
2022/06/13 00:00:53;;;;;;;9.52;3.20;;;16.50;99.90;;;;;;5055831;28;20206;-71
2022/06/13 00:03:21;;;;;;;11.88;3.40;;;16.40;99.90;;;;;;5075575;28;20206;-71
2022/06/13 00:05:48;;;;;;;11.15;3.70;;;16.50;99.90;;;;;;5075157;28;20679;-71
2022/06/13 00:08:16;;;;;;;7.43;3.00;;;16.40;99.90;;;;;;5056508;28;20203;-71
2022/06/13 00:10:42;;;;;;;13.55;3.60;;;16.40;99.90;;;;;;5055433;28;20579;-71
2022/06/13 00:13:09;;;;;;;10.95;3.55;;;16.20;99.90;;;;;;5073596;28;20675;-71
2022/06/13 00:15:37;;;;;;;6.78;3.22;;;16.10;99.90;;;;;;5074797;28;20233;-71
2022/06/13 00:18:04;;;;;;;9.35;3.50;;;16.00;99.90;;;;;;5057820;28;20195;-72
2022/06/13 00:20:32;;;;;;;7.18;3.38;;;15.80;99.90;;;;;;5059959;28;20195;-71
2022/06/13 00:22:59;;;;;;;7.65;3.00;;;15.80;99.90;;;;;;5062051;28;20203;-71
2022/06/13 00:25:26;;;;;;;8.88;3.90;;;15.70;99.90;;;;;;5058715;28;20190;-71
2022/06/13 00:27:54;;;;;;;9.60;3.22;;;15.70;99.90;;;;;;5074410;28;20207;-71
2022/06/13 00:30:21;;;;;;;8.82;3.17;;;15.60;99.90;;;;;;5059793;28;20203;-71
2022/06/13 00:32:48;;;;;;;10.75;3.00;;;15.60;99.90;;;;;;5054891;28;20207;-71
2022/06/13 00:35:15;;;;;;;6.68;3.13;;;15.60;99.90;;;;;;5055966;28;20333;-71
2022/06/13 00:37:43;;;;;;;7.55;3.40;;;15.50;99.90;;;;;;5054972;28;20210;-71
2022/06/13 00:40:11;;;;;;;10.73;3.80;;;15.70;99.90;;;;;;5071721;28;20198;-71
2022/06/13 00:42:39;;;;;;;10.63;3.63;;;15.60;99.90;;;;;;5074787;28;20687;-71
2022/06/13 00:45:13;;;;;;;9.97;3.50;;;15.70;99.90;;;;;;5058094;28;20608;-70
2022/06/13 00:47:44;;;;;;;11.85;3.40;;;15.80;99.90;;;;;;5054759;28;20206;-71
2022/06/13 00:50:14;;;;;;;12.48;3.30;;;15.70;99.90;;;;;;5070954;28;20293;-71
2022/06/13 00:52:46;;;;;;;11.83;3.43;;;15.70;99.90;;;;;;5064265;28;20210;-71
2022/06/13 00:55:17;;;;;;;9.02;3.65;;;15.60;99.90;;;;;;5068343;28;20632;-70
2022/06/13 00:57:44;;;;;;;9.65;3.33;;;15.70;99.90;;;;;;5061993;28;20199;-70
2022/06/13 01:00:14;;;;;;;11.35;3.22;;;15.60;99.90;;;;;;5069902;28;20678;-71
2022/06/13 01:02:46;;;;;;;7.23;3.50;;;15.50;99.90;;;;;;5054555;28;20199;-70
2022/06/13 01:05:15;;;;;;;9.47;3.30;;;15.40;99.90;;;;;;5069381;28;20203;-71
2022/06/13 01:07:45;;;;;;;8.27;3.17;;;15.50;99.90;;;;;;5073080;28;20205;-70
2022/06/13 01:12:56;;;;;;;8.80;3.58;;;15.40;99.90;;;;;;5057897;28;20213;-71
2022/06/13 01:15:41;;;;;;;13.57;3.83;;;15.50;99.90;;;;;;5073650;28;20222;-71
2022/06/13 01:18:33;;;;;;;10.27;3.80;;;15.40;99.90;;;;;;5055337;28;20555;-71
2022/06/13 01:21:12;;;;;;;9.93;3.33;;;15.40;99.90;;;;;;5073483;28;20687;-71
2022/06/13 01:24:23;;;;;;;11.53;3.60;;;15.30;99.90;;;;;;5052809;28;20203;-71
2022/06/13 01:27:11;;;;;;;13.93;3.67;;;15.30;99.90;;;;;;5064905;28;20323;-70
2022/06/13 01:29:51;;;;;;;11.40;3.70;;;15.10;99.90;;;;;;5054854;28;20195;-71
2022/06/13 01:32:34;;;;;;;8.25;3.42;;;15.10;99.90;;;;;;5072481;28;20201;-70
2022/06/13 01:35:17;;;;;;;7.63;3.40;;;15.10;99.90;;;;;;5071050;28;20233;-71
2022/06/13 01:37:55;;;;;;;10.93;4.33;;;15.00;99.90;;;;;;5070453;28;20205;-71
2022/06/13 01:40:30;;;;;;;9.73;3.43;;;15.00;99.90;;;;;;5051864;28;20198;-71
2022/06/13 01:43:08;;;;;;;11.15;3.53;;;15.00;99.90;;;;;;5057531;28;20203;-71
2022/06/13 01:45:41;;;;;;;14.27;3.93;;;15.00;99.90;;;;;;5054182;28;20187;-71
2022/06/13 01:48:20;;;;;;;11.93;3.60;;;14.90;99.90;;;;;;5069951;28;20199;-71
2022/06/13 01:50:53;;;;;;;7.97;3.67;;;14.90;99.90;;;;;;5070690;28;20205;-71
2022/06/13 01:53:28;;;;;;;9.33;3.40;;;14.80;99.90;;;;;;5071870;28;20213;-70
2022/06/13 01:58:46;;;;;;;8.40;3.40;;;14.60;99.90;;;;;;4999439;23;20220;-74
2022/06/13 02:01:22;;;;;;;9.10;3.33;;;14.70;99.90;;;;;;4986116;28;20613;-74
2022/06/13 02:03:54;;;;;;;11.33;4.07;;;14.70;99.90;;;;;;4992281;28;20201;-74
2022/06/13 02:06:27;;;;;;;7.90;3.50;;;14.70;99.90;;;;;;4991230;28;20208;-74
2022/06/13 02:08:59;;;;;;;12.10;4.13;;;14.60;99.90;;;;;;4990193;28;20228;-74
2022/06/13 02:11:31;;;;;;;10.57;3.90;;;14.50;99.90;;;;;;4987177;28;20229;-74
2022/06/13 02:14:03;;;;;;;14.00;5.13;;;14.30;99.90;;;;;;4988196;28;20279;-74
2022/06/13 02:16:35;;;;;;;12.17;5.50;;;14.20;99.90;;;;;;4990586;28;20284;-74
2022/06/13 02:19:08;;;;;;;14.87;7.27;;;14.40;99.90;;;;;;4979163;28;20465;-74
2022/06/13 02:21:40;;;;;;;13.57;7.00;;;14.40;99.90;;;;;;4980116;28;20201;-74
2022/06/13 02:24:13;;;;;;;11.33;5.80;;;14.30;99.90;;;;;;4972335;28;20672;-74
2022/06/13 02:26:42;;;;;;;10.33;4.50;;;14.20;99.90;;;;;;4990671;28;20209;-74
2022/06/13 02:29:15;;;;;;;8.13;4.67;;;14.30;99.90;;;;;;4991545;28;20283;-74
2022/06/13 02:31:47;;;;;;;10.30;5.20;;;14.20;99.90;;;;;;4991500;28;20660;-74
2022/06/13 02:34:20;;;;;;;12.07;5.00;;;14.30;99.90;;;;;;4990477;28;20726;-74
2022/06/13 02:36:53;;;;;;;9.90;4.50;;;14.40;99.90;;;;;;4992444;28;20266;-74
2022/06/13 02:39:25;;;;;;;11.47;4.60;;;14.20;99.90;;;;;;4987689;28;20252;-74
2022/06/13 02:41:59;;;;;;;11.60;4.70;;;14.10;99.90;;;;;;4991099;28;20205;-74
2022/06/13 02:44:32;;;;;;;9.47;4.43;;;13.70;99.90;;;;;;4987190;28;20197;-74
2022/06/13 02:47:05;;;;;;;11.13;4.70;;;13.80;99.90;;;;;;4973825;28;20408;-74
2022/06/13 02:49:39;;;;;;;12.13;4.20;;;13.70;99.90;;;;;;4991806;28;20208;-74
2022/06/13 02:52:14;;;;;;;10.40;4.03;;;13.70;99.90;;;;;;4990179;28;20232;-74
2022/06/13 02:54:47;;;;;;;8.10;3.77;;;13.60;99.90;;;;;;4991134;28;20220;-73
2022/06/13 02:57:46;;;;;;;11.83;4.40;;;13.60;99.90;;;;;;4991755;28;20220;-74
2022/06/13 03:00:21;;;;;;;7.97;3.70;;;13.70;99.90;;;;;;4975271;28;20583;-73
2022/06/13 03:02:54;;;;;;;8.17;3.47;;;13.70;99.90;;;;;;4991796;28;20201;-73
2022/06/13 03:05:39;;;;;;;8.50;3.70;;;13.90;99.90;;;;;;4990051;28;20270;-74
2022/06/13 03:08:20;;;;;;;10.80;4.43;;;13.90;99.90;;;;;;4991664;28;20679;-74
2022/06/13 03:10:56;;;;;;;6.97;3.97;;;13.90;99.90;;;;;;4990855;28;20204;-74
2022/06/13 03:13:30;;;;;;;9.93;3.87;;;13.90;99.90;;;;;;4987620;28;20205;-74
2022/06/13 03:16:02;;;;;;;10.27;4.00;;;13.80;99.90;;;;;;4988087;28;20303;-74
2022/06/13 03:18:33;;;;;;;13.07;5.10;;;13.90;99.90;;;;;;4984753;28;20229;-74
2022/06/13 03:21:07;;;;;;;8.77;3.97;;;14.00;99.90;;;;;;4985299;28;20569;-74
2022/06/13 03:23:41;;;;;;;10.67;4.20;;;13.90;99.90;;;;;;4991327;28;20686;-74
2022/06/13 03:26:13;;;;;;;8.13;3.60;;;14.00;99.90;;;;;;4991438;28;20618;-74
2022/06/13 03:28:45;;;;;;;8.50;3.70;;;14.00;99.90;;;;;;4991208;28;20237;-74
2022/06/13 03:31:17;;;;;;;15.50;8.20;;;14.10;99.90;;;;;;4991682;28;20220;-73
2022/06/13 03:33:49;;;;;;;11.03;4.80;;;14.30;99.90;;;;;;4991841;28;20247;-73
2022/06/13 03:36:21;;;;;;;15.13;4.67;;;14.40;99.90;;;;;;4991564;28;20268;-73
2022/06/13 03:38:53;;;;;;;11.50;3.90;;;14.30;99.90;;;;;;4991256;28;20237;-74
2022/06/13 03:41:25;;;;;;;16.40;9.13;;;14.40;99.90;;;;;;4979637;28;20212;-74
2022/06/13 03:43:56;;;;;;;19.90;9.03;;;14.50;99.90;;;;;;4971811;28;20197;-74
2022/06/13 03:46:27;;;;;;;11.03;4.13;;;14.50;99.90;;;;;;4975300;28;20241;-72
2022/06/13 03:48:58;;;;;;;5.37;3.57;;;14.50;99.90;;;;;;4971537;28;20198;-72
2022/06/13 03:51:32;;;;;;;7.90;3.90;;;14.40;99.90;;;;;;4988191;28;20232;-72
2022/06/13 03:54:07;;;;;;;10.00;3.83;;;14.50;99.90;;;;;;4990743;28;20212;-72
2022/06/13 03:56:39;;;;;;;11.80;4.43;;;14.30;99.90;;;;;;4991063;28;20644;-72
2022/06/13 03:59:09;;;;;;;10.07;4.30;;;14.40;99.90;;;;;;4991068;28;20248;-73
2022/06/13 04:01:40;;;;;;;10.50;4.50;;;14.40;99.90;;;;;;4991130;28;20241;-72
2022/06/13 04:04:15;;;;;;;10.23;4.87;;;14.10;99.90;;;;;;4993402;28;20271;-72
2022/06/13 04:06:43;;;;;;;6.53;4.03;;;14.20;99.90;;;;;;4994099;28;20255;-72
2022/06/13 04:09:16;;;;;;;10.23;4.27;;;14.40;99.90;;;;;;4995161;28;20655;-72
2022/06/13 04:12:00;;;;;;;8.67;4.17;;;14.60;99.90;;;;;;4994811;28;20255;-72
2022/06/13 04:14:59;;;;;;;12.50;4.63;;;14.50;99.90;;;;;;4994743;28;20255;-73
2022/06/13 04:17:31;;;;;;;16.07;4.50;;;14.70;99.90;;;;;;4994594;28;20200;-72
2022/06/13 04:20:05;;;;;;;12.40;4.47;;;15.10;99.90;;;;;;4993580;28;20288;-72
2022/06/13 04:22:44;;;;;;;12.90;4.43;;;15.00;99.90;;;;;;4993378;28;20197;-72
2022/06/13 04:25:17;;;;;;;11.87;4.77;;;14.80;99.90;;;;;;4991384;28;20569;-72
2022/06/13 04:27:49;;;;;;;10.83;4.50;;;14.90;99.90;;;;;;4979136;28;20193;-72
2022/06/13 04:30:19;;;;;;;13.10;4.63;;;14.70;99.90;;;;;;4990699;28;20568;-72
2022/06/13 04:32:52;;;;;;;11.30;4.60;;;14.70;99.90;;;;;;4987016;28;20205;-72
2022/06/13 04:35:20;;;;;;;15.20;8.70;;;14.70;99.90;;;;;;4980550;28;20287;-72
2022/06/13 04:37:50;;;;;;;11.43;5.47;;;14.60;99.90;;;;;;4993492;28;20205;-72
2022/06/13 04:40:21;;;;;;;10.47;4.03;;;14.60;99.90;;;;;;4993834;28;20207;-72
2022/06/13 04:42:50;;;;;;;9.00;4.30;;;14.70;99.90;;;;;;4993338;28;20197;-72
2022/06/13 04:45:23;;;;;;;10.00;4.80;;;14.60;99.90;;;;;;4993240;28;20205;-71
2022/06/13 04:47:52;;;;;;;10.57;3.93;;;14.50;99.90;;;;;;4994362;28;20746;-71
2022/06/13 04:50:27;;;;;;;10.67;4.37;;;14.50;99.90;;;;;;4994514;28;20212;-71
2022/06/13 04:52:59;;;;;;;10.97;4.03;;;14.60;99.90;;;;;;4994437;28;20232;-71
2022/06/13 04:55:32;;;;;;;9.03;4.10;;;14.40;99.90;;;;;;4988566;28;20225;-71
2022/06/13 04:57:59;;;;;;;10.80;4.20;;;14.40;99.90;;;;;;4982999;28;20217;-71
2022/06/13 05:00:27;;;;;;;11.03;4.30;;;14.30;99.90;;;;;;4977440;28;20285;-71
2022/06/13 05:02:56;;;;;;;11.50;4.40;;;14.40;99.90;;;;;;4974783;28;20241;-71
2022/06/13 05:05:36;;;;;;;12.00;4.77;;;14.20;99.90;;;;;;4982342;28;20534;-72
2022/06/13 05:08:13;;;;;;;10.20;4.40;;;14.20;99.90;;;;;;4992996;28;20216;-72
2022/06/13 05:10:44;;;;;;;9.60;4.20;;;14.50;99.90;;;;;;4993571;28;20216;-71
2022/06/13 05:13:11;;;;;;;10.07;4.30;;;14.50;99.90;;;;;;4994279;28;20679;-67
2022/06/13 05:15:39;;;;;;;12.23;4.63;;;14.60;99.90;;;;;;4991399;28;20271;-68
2022/06/13 05:18:30;;;;;;;14.33;4.77;;;14.60;99.90;;;;;;4993624;28;20256;-67
2022/06/13 05:21:11;;;;;;;12.17;4.63;;;14.60;99.90;;;;;;4992243;28;20244;-67
2022/06/13 05:24:02;;;;;;;11.70;4.10;;;14.50;99.90;;;;;;4991762;28;20201;-68
2022/06/13 05:26:29;;;;;;;11.67;4.67;;;14.60;99.90;;;;;;4993217;28;20643;-67
2022/06/13 05:28:59;;;;;;;12.30;4.80;;;14.70;99.90;;;;;;4993377;28;20205;-68
2022/06/13 05:31:27;;;;;;;13.50;4.43;;;14.70;99.90;;;;;;4992673;28;20201;-67
2022/06/13 05:33:56;;;;;;;9.03;4.27;;;14.70;99.90;;;;;;4993799;28;20197;-68
2022/06/13 05:36:26;;;;;;;11.33;4.47;;;14.60;99.90;;;;;;4993157;28;20267;-68
2022/06/13 05:38:56;;;;;;;10.67;4.43;;;14.90;99.90;;;;;;4993624;28;20233;-67
2022/06/13 05:41:24;;;;;;;10.37;4.30;;;15.00;99.90;;;;;;4992254;28;20251;-68
2022/06/13 05:43:51;;;;;;;8.80;4.00;;;15.10;99.90;;;;;;4992556;28;20259;-68
2022/06/13 05:46:21;;;;;;;11.90;5.00;;;15.20;99.90;;;;;;4993153;28;20201;-67
2022/06/13 05:48:51;;;;;;;10.47;4.40;;;14.90;99.90;;;;;;4993532;28;20267;-67
2022/06/13 05:51:18;;;;;;;11.00;5.57;;;15.10;99.90;;;;;;4992845;28;20215;-67
2022/06/13 05:53:45;;;;;;;12.30;4.60;;;14.70;99.90;;;;;;4991300;28;20237;-67
2022/06/13 05:56:14;;;;;;;10.37;4.60;;;15.00;99.90;;;;;;4992558;28;20660;-67
2022/06/13 05:58:41;;;;;;;12.40;4.43;;;15.00;99.90;;;;;;4992255;28;20201;-68
2022/06/13 06:01:08;;;;;;;11.10;4.70;;;15.10;99.90;;;;;;4992039;28;20279;-67
2022/06/13 06:03:35;;;;;;;12.60;4.10;;;15.40;99.90;;;;;;4992146;28;20260;-68
2022/06/13 06:06:03;;;;;;;11.20;4.40;;;15.40;99.90;;;;;;4991980;28;20254;-68
2022/06/13 06:08:33;;;;;;;12.30;4.40;;;15.50;99.90;;;;;;4992908;28;20213;-68
2022/06/13 06:11:00;;;;;;;11.97;4.63;;;15.60;99.90;;;;;;4993086;28;20336;-67
2022/06/13 06:13:30;;;;;;;12.35;5.28;;;15.70;99.90;;;;;;4991557;28;20663;-67
2022/06/13 06:16:00;;;;;;;9.65;3.83;;;15.90;99.90;;;;;;4991563;28;20762;-68
2022/06/13 06:18:28;;;;;;;13.38;4.32;;;16.00;99.90;;;;;;4992957;28;20671;-68
2022/06/13 06:20:56;;;;;;;11.07;4.17;;;16.00;99.90;;;;;;4984119;28;20618;-67
2022/06/13 06:23:22;;;;;;;8.90;4.07;;;16.00;99.90;;;;;;4990351;28;20756;-67
2022/06/13 06:25:50;;;;;;;14.20;4.10;;;15.90;99.90;;;;;;4991666;28;20631;-67
2022/06/13 06:28:20;;;;;;;9.77;4.10;;;15.90;99.90;;;;;;4991453;28;20205;-67
2022/06/13 06:30:48;;;;;;;12.48;3.83;;;15.90;99.90;;;;;;4991203;28;20201;-68
2022/06/13 06:33:16;;;;;;;9.93;4.13;;;16.20;99.90;;;;;;4992611;28;20272;-67
2022/06/13 06:35:43;;;;;;;12.32;4.28;;;16.20;99.90;;;;;;4991516;28;20283;-67
2022/06/13 06:38:10;;;;;;;12.05;4.18;;;16.30;99.90;;;;;;4991692;28;20289;-68
2022/06/13 06:40:38;;;;;;;8.67;3.70;;;16.50;99.90;;;;;;4991262;28;20201;-67
2022/06/13 06:43:05;;;;;;;7.47;3.50;;;16.60;99.90;;;;;;4982914;28;20237;-68
2022/06/13 06:45:33;;;;;;;12.13;3.77;;;16.60;99.90;;;;;;4980459;28;20209;-68
2022/06/13 06:48:01;;;;;;;11.52;4.13;;;16.40;99.90;;;;;;4991155;28;20303;-67
2022/06/13 06:50:31;;;;;;;11.80;3.80;;;16.50;99.90;;;;;;4992194;28;20209;-68
2022/06/13 06:52:58;;;;;;;7.47;3.45;;;16.60;99.90;;;;;;4992506;28;20205;-68
2022/06/13 07:00:58;;;;;;;13.97;3.87;;;16.50;99.90;;;;;;4990985;28;20216;-68
2022/06/13 07:03:27;;;;;;;10.55;3.90;;;16.60;99.90;;;;;;4992338;28;20615;-67
2022/06/13 07:05:54;;;;;;;10.00;4.37;;;16.60;99.90;;;;;;4991049;28;20619;-67
2022/06/13 07:08:21;;;;;;;9.80;4.18;;;16.50;99.90;;;;;;4991769;28;20208;-67
2022/06/13 07:10:49;;;;;;;12.18;3.60;;;16.50;99.90;;;;;;4991119;28;20221;-67
2022/06/13 07:13:18;;;;;;;11.10;3.55;;;16.50;99.90;;;;;;4992314;28;20205;-68
2022/06/13 07:15:48;;;;;;;10.73;4.00;;;16.50;99.90;;;;;;4990828;28;20241;-68
2022/06/13 07:18:15;;;;;;;10.65;4.35;;;16.40;99.90;;;;;;4991725;28;20584;-68
2022/06/13 07:20:43;;;;;;;11.18;3.60;;;16.60;99.90;;;;;;4991548;28;20205;-67
2022/06/13 07:23:10;;;;;;;9.10;3.83;;;16.80;99.90;;;;;;4990548;28;20211;-67
2022/06/13 07:25:38;;;;;;;10.55;3.88;;;16.60;99.90;;;;;;4984782;28;20256;-67
2022/06/13 07:28:05;;;;;;;10.30;3.70;;;16.80;99.90;;;;;;4970984;28;20248;-67
2022/06/13 07:30:32;;;;;;;8.75;3.53;;;16.80;99.90;;;;;;4979737;28;20717;-68
2022/06/13 07:32:59;;;;;;;10.98;3.70;;;16.60;99.90;;;;;;4975371;28;20572;-68
2022/06/13 07:35:27;;;;;;;9.75;3.90;;;16.90;99.90;;;;;;4980728;28;20254;-68
2022/06/13 07:40:41;;;;;;;8.30;3.25;;;17.20;99.90;;;;;;4994890;28;20199;-67
2022/06/13 07:43:12;;;;;;;8.40;3.47;;;17.20;99.90;;;;;;4995503;28;20723;-67
2022/06/13 07:45:40;;;;;;;6.65;3.35;;;17.10;99.90;;;;;;4993973;28;20201;-68
2022/06/13 07:48:08;;;;;;;5.53;3.40;;;17.20;99.90;;;;;;4995188;28;20201;-68
2022/06/13 07:50:35;;;;;;;6.40;3.50;;;17.50;99.90;;;;;;4995762;28;20227;-67
2022/06/13 07:53:03;;;;;;;8.73;3.72;;;17.40;99.90;;;;;;4994192;28;20284;-68
2022/06/13 07:55:32;;;;;;;11.18;4.03;;;17.40;99.90;;;;;;4994241;28;20268;-67
2022/06/13 07:57:59;;;;;;;9.27;3.70;;;17.50;99.90;;;;;;4993633;28;20688;-67
2022/06/13 08:00:31;;;;;;;7.20;3.35;;;17.30;99.90;;;;;;4994529;28;20312;-69
2022/06/13 08:03:01;;;;;;;7.07;3.13;;;17.20;99.90;;;;;;4995791;28;20212;-68
2022/06/13 08:05:28;;;;;;;8.52;3.15;;;17.10;99.90;;;;;;4995225;28;20208;-67
2022/06/13 08:07:55;;;;;;;8.45;3.40;;;17.50;99.90;;;;;;4993917;28;20288;-67
2022/06/13 08:10:24;;;;;;;6.90;3.40;;;17.80;99.20;;;;;;4990787;28;20198;-68
2022/06/13 08:12:51;;;;;;;7.03;3.15;;;18.20;97.70;;;;;;4975516;28;20202;-68
2022/06/13 08:15:22;;;;;;;5.43;3.33;;;18.20;98.70;;;;;;4978384;28;20285;-67
2022/06/13 08:17:49;;;;;;;7.93;3.08;;;18.00;93.50;;;;;;4981105;28;20224;-68
2022/06/13 08:20:16;;;;;;;8.10;3.28;;;17.90;94.10;;;;;;4995322;28;20193;-67
2022/06/13 08:22:44;;;;;;;8.88;3.00;;;17.80;93.50;;;;;;4995210;28;20205;-67
2022/06/13 08:25:18;;;;;;;9.65;3.22;;;17.80;90.70;;;;;;4993856;28;20240;-68
2022/06/13 08:27:47;;;;;;;7.88;3.22;;;18.20;91.10;;;;;;4993300;28;20652;-68
2022/06/13 08:30:15;;;;;;;8.88;3.55;;;18.40;84.90;;;;;;4993941;28;20209;-68
2022/06/13 08:32:42;;;;;;;9.50;2.85;;;18.40;81.60;;;;;;4994686;28;20210;-68
2022/06/13 08:35:10;;;;;;;6.43;3.05;;;18.50;85.60;;;;;;4994608;28;20651;-67
2022/06/13 08:37:37;;;;;;;6.15;2.80;;;18.20;88.90;;;;;;4994298;28;20287;-68
2022/06/13 08:40:05;;;;;;;7.55;2.60;;;18.10;86.80;;;;;;4993506;28;20841;-67
2022/06/13 08:42:37;;;;;;;4.63;2.47;;;18.20;83.30;;;;;;4994625;28;20205;-68
2022/06/13 08:45:10;;;;;;;4.85;2.63;;;18.40;79.40;;;;;;4993148;28;20209;-68
2022/06/13 08:47:50;;;;;;;6.82;2.53;;;19.00;76.90;;;;;;4993294;28;20667;-67
2022/06/13 08:50:21;;;;;;;10.35;2.60;;;18.60;69.20;;;;;;4993876;28;20212;-68
2022/06/13 08:52:55;;;;;;;8.32;3.13;;;18.60;72.40;;;;;;4994846;28;20220;-67
2022/06/13 08:55:31;;;;;;;9.07;2.90;;;18.50;69.70;;;;;;4993153;28;20582;-68
2022/06/13 08:58:06;;;;;;;6.68;2.47;;;18.90;62.90;;;;;;4992678;28;20608;-68
2022/06/13 09:00:37;;;;;;;6.22;2.35;;;19.00;59.60;;;;;;4993255;28;20615;-68
2022/06/13 09:03:10;;;;;;;7.40;2.25;;;18.60;61.70;;;;;;4992296;28;20205;-67
2022/06/13 09:05:43;;;;;;;7.28;2.03;;;18.70;62.10;;;;;;4993749;28;20234;-68
2022/06/13 09:08:17;;;;;;;5.78;2.70;;;19.40;57.10;;;;;;4985705;28;20209;-68
2022/06/13 09:10:50;;;;;;;6.88;2.20;;;19.90;52.50;;;;;;4992308;28;20291;-67
2022/06/13 09:13:24;;;;;;;5.05;1.90;;;20.30;46.90;;;;;;4984934;28;20647;-68
2022/06/13 09:16:00;;;;;;;4.60;2.00;;;20.90;45.30;;;;;;4991291;28;20264;-68
2022/06/13 09:18:30;;;;;;;6.30;2.38;;;20.90;39.70;;;;;;4993949;28;20746;-68
2022/06/13 09:21:00;;;;;;;5.47;1.75;;;21.10;40.70;;;;;;4993812;28;20676;-68
2022/06/13 09:23:36;;;;;;;3.47;1.90;;;21.10;42.80;;;;;;4992417;28;20225;-68
2022/06/13 09:26:12;;;;;;;6.50;2.38;;;21.30;43.00;;;;;;4992056;28;20205;-68
2022/06/13 09:28:47;;;;;;;5.38;2.13;;;21.50;39.30;;;;;;4993577;28;20240;-68
2022/06/13 09:31:22;;;;;;;3.30;1.80;;;20.60;39.40;;;;;;4992899;28;20634;-67
2022/06/13 09:33:53;;;;;;;4.90;2.38;;;20.70;39.60;;;;;;4993788;28;20209;-68
2022/06/13 09:36:27;;;;;;;3.10;1.90;;;21.30;40.80;;;;;;4992786;28;20248;-68
2022/06/13 09:38:59;;;;;;;3.92;2.17;;;21.50;37.60;;;;;;4993061;28;20255;-68
2022/06/13 09:41:45;;;;;;;6.35;2.35;;;21.50;36.00;;;;;;4992454;28;20209;-68
2022/06/13 09:44:26;;;;;;;4.55;2.05;;;21.20;37.90;;;;;;4992170;28;20205;-68
2022/06/13 09:47:03;;;;;;;4.15;1.83;;;21.50;37.30;;;;;;4993909;28;20209;-68
2022/06/13 09:49:40;;;;;;;4.82;2.05;;;21.30;33.70;;;;;;4973871;28;20546;-68
2022/06/13 09:52:15;;;;;;;5.65;1.92;;;20.60;34.40;;;;;;4973057;28;20260;-68
2022/06/13 09:54:50;;;;;;;4.45;2.10;;;20.60;38.50;;;;;;4973710;28;20201;-68
2022/06/13 09:57:26;;;;;;;7.57;2.15;;;20.60;38.50;;;;;;4991610;28;20221;-68
2022/06/13 10:00:14;;;;;;;4.07;2.17;;;20.20;39.80;;;;;;4991974;28;20237;-68
2022/06/13 10:02:56;;;;;;;5.38;2.05;;;19.90;41.30;;;;;;4987346;28;20242;-68
2022/06/13 10:05:37;;;;;;;5.32;2.33;;;19.70;41.60;;;;;;4989905;28;20208;-68
2022/06/13 10:08:17;;;;;;;10.27;1.80;;;19.60;40.60;;;;;;4985441;28;20287;-68
2022/06/13 10:10:50;;;;;;;7.45;2.40;;;18.70;46.50;;;;;;4986690;28;20259;-68
2022/06/13 10:13:30;;;;;;;5.80;2.35;;;16.00;99.90;;;;;;4981588;28;20289;-68
2022/06/13 10:16:06;;;;;;;6.32;2.00;;;14.60;99.90;;;;;;4980741;28;20240;-67
2022/06/13 10:18:53;;;;;;;3.38;1.63;;;14.20;99.90;;;;;;4987023;28;20316;-67
2022/06/13 10:21:27;;;;;;;7.43;2.20;;;14.30;99.90;;;;;;4984516;28;20201;-67
2022/06/13 10:24:02;;;;;;;3.67;1.63;;;14.20;99.90;;;;;;4990983;28;20917;-67
2022/06/13 10:26:37;;;;;;;3.53;2.20;;;14.30;99.90;;;;;;4991915;28;20204;-67
2022/06/13 10:29:24;;;;;;;4.30;2.03;;;14.70;99.90;;;;;;4992291;28;20205;-68
2022/06/13 10:32:03;;;;;;;3.77;1.60;;;14.80;99.90;;;;;;4989377;28;20213;-68
2022/06/13 10:34:45;;;;;;;3.03;1.83;;;14.80;99.90;;;;;;4992191;28;20251;-68
2022/06/13 10:37:20;;;;;;;3.20;2.03;;;15.20;99.90;;;;;;4992600;28;20691;-68
2022/06/13 10:39:49;;;;;;;3.37;2.13;;;15.70;99.90;;;;;;4991434;28;20287;-68
2022/06/13 10:42:21;;;;;;;5.53;2.15;;;16.60;99.90;;;;;;4991922;28;20201;-69
2022/06/13 10:44:48;;;;;;;2.33;1.65;;;17.00;99.90;;;;;;4992120;28;20255;-68
2022/06/13 10:47:19;;;;;;;2.75;1.70;;;17.00;99.90;;;;;;4991151;28;20244;-68
2022/06/13 10:49:53;;;;;;;2.95;1.77;;;17.00;99.90;;;;;;4992383;28;20714;-68
2022/06/13 10:52:24;;;;;;;4.28;1.85;;;16.90;99.90;;;;;;4991576;28;20205;-68
2022/06/13 10:54:55;;;;;;;5.70;1.95;;;16.90;99.90;;;;;;4990924;28;20215;-68
2022/06/13 10:57:29;;;;;;;4.25;2.10;;;16.60;99.90;;;;;;4992117;28;20229;-68
2022/06/13 11:00:13;;;;;;;3.63;2.38;;;16.40;99.90;;;;;;4990821;28;20236;-67
2022/06/13 11:02:40;;;;;;;7.53;2.60;;;16.00;99.90;;;;;;4975819;28;20717;-68
2022/06/13 11:05:11;;;;;;;4.40;2.50;;;15.60;99.90;;;;;;4982144;28;20207;-67
2022/06/13 11:07:47;;;;;;;4.33;2.70;;;15.40;99.90;;;;;;4990716;28;20211;-67
2022/06/13 11:10:34;;;;;;;9.77;3.33;;;15.50;99.90;;;;;;4990944;28;20543;-67
2022/06/13 11:13:04;;;;;;;6.27;3.17;;;15.50;99.90;;;;;;4991897;28;20205;-70
2022/06/13 11:24:13;;;;;;;6.43;2.70;;;15.40;99.90;;;;;;4990213;28;20686;-70
2022/06/13 11:29:30;;;;;;;4.87;3.30;;;15.60;99.90;;;;;;4985095;28;20205;-70
2022/06/13 11:32:00;;;;;;;5.22;3.83;;;15.70;99.90;;;;;;4979666;28;20237;-71
2022/06/13 11:34:32;;;;;;;3.67;2.53;;;15.80;99.90;;;;;;4990550;28;20237;-71
2022/06/13 11:37:04;;;;;;;4.93;3.17;;;15.70;99.90;;;;;;4991713;28;20205;-71
2022/06/13 11:39:36;;;;;;;3.40;2.30;;;15.60;99.90;;;;;;4991017;28;20205;-71
2022/06/13 11:42:13;;;;;;;6.73;2.03;;;15.60;99.90;;;;;;4991737;28;20200;-71
2022/06/13 11:44:43;;;;;;;3.67;2.40;;;15.50;99.90;;;;;;4990417;28;20617;-71
2022/06/13 11:47:10;;;;;;;4.33;2.10;;;15.50;99.90;;;;;;4991828;28;20205;-71
2022/06/13 11:49:41;;;;;;;4.60;1.83;;;15.40;99.90;;;;;;4990579;28;20205;-71
2022/06/13 11:55:20;;;;;;;5.77;2.00;;;15.20;99.90;;;;;;4990644;28;20220;-69
2022/06/13 11:57:52;;;;;;;3.50;1.87;;;15.40;99.90;;;;;;4983433;28;20692;-70
2022/06/13 12:00:33;;;;;;;2.83;1.60;;;15.40;99.90;;;;;;4980836;28;20241;-69
2022/06/13 12:03:13;;;;;;;1.77;1.30;;;15.50;99.90;;;;;;4984332;28;20264;-69
2022/06/13 12:05:42;;;;;;;3.40;1.60;;;15.40;99.90;;;;;;4987556;28;20688;-68
2022/06/13 12:08:25;;;;;;;3.73;1.50;;;15.30;99.90;;;;;;4976707;28;20299;-69
2022/06/13 12:11:02;;;;;;;1.93;1.40;;;15.70;99.90;;;;;;4979479;28;20607;-69
2022/06/13 12:13:31;;;;;;;5.07;1.43;;;16.60;99.90;;;;;;4979946;28;20228;-69
2022/06/13 12:16:08;;;;;;;3.90;1.00;;;17.00;99.90;;;;;;4977894;28;20656;-69
2022/06/13 12:18:43;;;;;;;2.60;1.10;;;16.90;99.90;;;;;;4981906;28;20267;-69
2022/06/13 12:21:18;;;;;;;1.50;0.90;;;17.00;99.90;;;;;;4974867;28;20669;-68
2022/06/13 12:23:52;;;;;;;0.95;0.77;;;16.70;99.90;;;;;;4985458;28;20258;-69
2022/06/13 12:26:26;;;;;;;0.70;0.70;;;16.60;99.90;;;;;;4989338;28;20198;-68
2022/06/13 12:29:00;;;;;;;1.33;0.90;;;16.60;99.90;;;;;;4977013;28;20201;-69
2022/06/13 12:31:35;;;;;;;1.75;1.10;;;16.60;99.90;;;;;;4973438;28;20237;-70
2022/06/13 12:34:13;;;;;;;1.20;0.80;;;16.50;99.90;;;;;;4982456;28;20293;-68
2022/06/13 12:37:06;;;;;;;0.88;0.85;;;16.60;99.90;;;;;;4988015;28;20247;-69
2022/06/13 12:39:50;;;;;;;1.02;0.60;;;16.90;99.90;;;;;;4975027;28;20253;-69
2022/06/13 12:42:29;;;;;;;1.02;0.50;;;16.90;96.10;;;;;;4993212;28;20727;-69
2022/06/13 12:45:16;;;;;;;1.50;0.82;;;17.40;98.80;;;;;;4992477;28;20572;-69
2022/06/13 12:48:03;;;;;;;1.05;0.82;;;18.10;94.40;;;;;;4994945;28;20216;-69
2022/06/13 12:50:46;;;;;;;1.00;0.90;;;18.30;80.40;;;;;;4978536;28;20632;-69
2022/06/13 12:53:42;;;;;;;1.25;0.93;;;18.30;81.10;;;;;;4994250;28;20247;-68
2022/06/13 12:56:20;;;;;;;0.80;0.80;;;18.60;94.60;;;;;;4992688;28;20637;-68
2022/06/13 12:59:03;;;;;;;1.30;0.93;;;18.80;78.50;;;;;;4992851;28;20267;-71
2022/06/13 13:01:37;;;;;;;2.25;0.77;;;18.40;77.40;;;;;;4992333;28;20205;-71
2022/06/13 13:04:34;;;;;;;3.20;0.82;;;19.40;82.40;;;;;;4990612;28;20663;-69
2022/06/13 13:07:06;;;;;;;2.17;1.02;;;19.90;67.70;;;;;;4991208;28;20292;-69
2022/06/13 13:09:56;;;;;;;2.55;0.90;;;19.70;68.70;;;;;;4976803;28;20204;-68
2022/06/13 13:12:45;;;;;;;2.97;1.10;;;20.30;71.90;;;;;;4993328;28;20648;-68
2022/06/13 13:15:18;;;;;;;3.22;0.90;;;20.10;66.30;;;;;;4993074;28;20201;-69
2022/06/13 13:17:56;;;;;;;1.95;1.38;;;20.10;68.40;;;;;;4989047;28;20257;-68
2022/06/13 13:20:31;;;;;;;1.60;0.85;;;20.20;67.70;;;;;;4981960;28;20656;-68
2022/06/13 13:23:03;;;;;;;2.05;1.00;;;19.90;60.70;;;;;;4988696;28;20259;-68
2022/06/13 13:25:37;;;;;;;3.03;1.05;;;20.20;60.40;;;;;;4988804;28;20264;-71
2022/06/13 13:28:17;;;;;;;1.52;1.05;;;20.50;61.00;;;;;;4991639;28;20615;-69
2022/06/13 13:30:51;;;;;;;2.97;1.35;;;20.30;57.80;;;;;;4992565;28;20512;-70
2022/06/13 13:33:35;;;;;;;2.65;0.90;;;20.20;57.20;;;;;;4991096;28;20220;-68
2022/06/13 13:36:10;;;;;;;2.78;1.45;;;19.80;50.10;;;;;;4990004;28;20648;-68
2022/06/13 13:38:41;;;;;;;5.75;1.10;;;19.70;52.50;;;;;;4984147;28;20239;-68
2022/06/13 13:41:15;;;;;;;2.40;0.82;;;19.40;54.00;;;;;;4988512;28;20635;-69